Terminal Aerodrome Forecast
Issued by NWS St Louis, MO

Home | Current Version | Previous Version | Text Only | Print | Product List | Glossary On
Versions: 1 2 3 4 5 6 7 8 9 10 11 12 13 14 15 16 17 18 19 20 21
000
FTUS43 KLSX 172024 AAA
TAFCOU
TAF AMD
KCOU 172024Z 1720/1818 16012G18KT P6SM OVC022
     FM180100 18012G19KT P6SM VCSH OVC015
     FM180900 23010G18KT P6SM VCTS OVC015CB
     FM181100 28012KT 5SM -SHRA VCTS OVC015CB
     FM181400 31016G28KT 5SM -SHRA BKN015=

USA.gov is the U.S. government's official web portal to all federal, state and local government web resources and services.